Time;durP1;ratioP1;P1;durP2;ratioP2;P2;SDS_P1;SDS_P2;PMS_P1;PMS_P2;Temp;Humidity;BMP_temperature;BMP_pressure;BME280_temperature;BME280_humidity;BME280_pressure;Samples;Min_cycle;Max_cycle;Signal;HPM_P1;HPM_P2
2023/05/18 00:00:14;;;;;;;9.80;4.22;;;;;;;7.43;67.60;99022.22;4977495;28;20037;-75
2023/05/18 00:02:41;;;;;;;9.60;4.25;;;;;;;7.31;67.82;99024.69;4977626;28;20034;-75
2023/05/18 00:05:09;;;;;;;9.95;4.20;;;;;;;7.11;67.77;99034.53;4960916;28;20392;-75
2023/05/18 00:07:36;;;;;;;10.82;4.60;;;;;;;7.20;67.26;99027.13;4977587;28;20030;-75
2023/05/18 00:10:01;;;;;;;9.82;4.75;;;;;;;6.80;69.03;99028.84;4977306;28;20108;-76
2023/05/18 00:12:27;;;;;;;12.30;4.80;;;;;;;7.01;67.61;99028.72;4977210;28;20105;-75
2023/05/18 00:14:52;;;;;;;11.60;5.25;;;;;;;7.00;69.03;99031.63;4960687;28;20403;-76
2023/05/18 00:17:19;;;;;;;8.52;4.35;;;;;;;7.16;67.92;99025.91;4974496;28;20038;-76
2023/05/18 00:19:45;;;;;;;8.90;4.50;;;;;;;7.08;67.17;99026.91;4993087;28;20033;-76
2023/05/18 00:22:16;;;;;;;8.60;5.03;;;;;;;6.83;68.93;99023.94;4993871;28;20555;-75
2023/05/18 00:24:42;;;;;;;8.70;4.82;;;;;;;6.77;69.36;99037.28;4977672;28;20044;-75
2023/05/18 00:27:07;;;;;;;11.30;4.97;;;;;;;6.83;68.50;99031.97;4993010;28;20027;-76
2023/05/18 00:29:33;;;;;;;10.95;5.20;;;;;;;7.04;67.50;99027.50;4994190;28;20042;-75
2023/05/18 00:31:58;;;;;;;10.30;4.90;;;;;;;6.84;69.17;99027.44;4991893;28;20491;-75
2023/05/18 00:34:24;;;;;;;8.30;4.80;;;;;;;6.86;68.49;99026.19;4960566;28;20036;-76
2023/05/18 00:36:49;;;;;;;10.43;4.90;;;;;;;6.75;68.96;99032.13;4976539;28;20392;-75
2023/05/18 00:39:14;;;;;;;11.90;4.45;;;;;;;6.78;67.93;99033.59;4976753;28;20040;-77
2023/05/18 00:41:40;;;;;;;10.65;4.88;;;;;;;6.75;68.58;99029.47;4973959;28;20027;-77
2023/05/18 00:44:05;;;;;;;12.20;4.95;;;;;;;6.81;68.67;99031.31;4960193;28;20104;-76
2023/05/18 00:46:31;;;;;;;7.13;4.00;;;;;;;6.70;68.87;99031.91;4992911;28;20084;-77
2023/05/18 00:48:56;;;;;;;9.40;4.85;;;;;;;6.60;69.90;99026.09;4992582;28;20069;-76
2023/05/18 00:51:23;;;;;;;11.93;4.82;;;;;;;6.36;69.51;99018.56;4992612;28;20049;-76
2023/05/18 00:53:51;;;;;;;11.20;5.00;;;;;;;6.42;69.96;99023.09;4976444;28;20037;-74
2023/05/18 00:56:17;;;;;;;9.25;4.88;;;;;;;6.36;70.51;99020.41;4992451;28;20484;-75
2023/05/18 00:58:43;;;;;;;7.80;5.03;;;;;;;6.62;69.44;99017.88;4976336;28;20045;-75
2023/05/18 01:01:09;;;;;;;10.73;4.75;;;;;;;6.33;69.50;99018.13;4972416;28;20037;-74
2023/05/18 01:03:38;;;;;;;10.73;4.60;;;;;;;6.32;69.40;99017.31;4990487;28;20042;-75
2023/05/18 01:06:08;;;;;;;9.15;4.22;;;;;;;6.17;70.19;99014.75;4961743;28;20022;-75
2023/05/18 01:08:34;;;;;;;8.82;5.22;;;;;;;5.86;71.22;99016.19;4975547;28;20657;-75
2023/05/18 01:11:05;;;;;;;10.85;4.75;;;;;;;6.41;68.70;99010.78;4959774;28;20028;-74
2023/05/18 01:13:54;;;;;;;9.13;3.92;;;;;;;6.45;68.72;99011.19;4960195;28;20038;-75
2023/05/18 01:16:27;;;;;;;10.98;4.18;;;;;;;6.41;68.38;99005.44;4977833;28;20038;-74
2023/05/18 01:19:04;;;;;;;12.90;5.03;;;;;;;6.07;69.64;99003.56;4991776;28;20073;-74
2023/05/18 01:21:45;;;;;;;9.70;4.47;;;;;;;6.24;69.54;99010.25;4956900;28;20046;-75
2023/05/18 01:24:32;;;;;;;7.13;3.88;;;;;;;6.33;68.73;99007.41;4956160;28;20026;-76
2023/05/18 01:26:59;;;;;;;9.10;4.00;;;;;;;6.24;68.49;99006.75;4956263;28;20054;-76
2023/05/18 01:29:29;;;;;;;7.63;4.25;;;;;;;6.16;69.23;99012.28;4956285;28;20069;-76
2023/05/18 01:31:56;;;;;;;9.00;3.67;;;;;;;6.22;69.14;99019.50;4940865;28;20031;-76
2023/05/18 01:34:22;;;;;;;8.60;4.05;;;;;;;6.41;68.66;99024.16;4974742;28;20393;-75
2023/05/18 01:36:47;;;;;;;9.68;4.10;;;;;;;6.38;68.97;99016.50;4975471;28;20057;-75
2023/05/18 01:39:13;;;;;;;6.65;3.88;;;;;;;6.31;68.51;99010.28;4975620;28;20081;-76
2023/05/18 01:41:47;;;;;;;8.48;3.78;;;;;;;6.31;68.57;99009.47;4986522;28;20031;-76
2023/05/18 01:44:16;;;;;;;10.18;4.30;;;;;;;6.19;69.54;99011.88;4966416;28;20049;-76
2023/05/18 01:47:02;;;;;;;10.02;4.70;;;;;;;6.11;69.89;99012.03;4992556;28;20076;-75
2023/05/18 01:49:27;;;;;;;10.15;4.93;;;;;;;5.83;70.38;99001.31;4959201;28;20038;-76
2023/05/18 01:51:53;;;;;;;9.75;5.03;;;;;;;5.68;71.60;99002.41;4975294;28;20076;-75
2023/05/18 01:54:20;;;;;;;8.88;4.57;;;;;;;5.51;71.51;98996.53;4974897;28;20065;-76
2023/05/18 01:56:46;;;;;;;11.90;4.95;;;;;;;5.66;71.51;99002.63;4964210;28;20026;-75
2023/05/18 01:59:13;;;;;;;10.60;5.95;;;;;;;5.74;71.21;99001.66;4975487;28;20492;-76
2023/05/18 02:01:38;;;;;;;9.32;5.53;;;;;;;5.68;71.47;98997.06;4959784;28;20034;-75
2023/05/18 02:04:08;;;;;;;12.13;4.25;;;;;;;6.12;70.08;99002.97;4991348;28;20034;-75
2023/05/18 02:06:34;;;;;;;11.25;4.57;;;;;;;5.80;70.63;99003.53;4974945;28;20058;-75
2023/05/18 02:08:59;;;;;;;9.02;5.18;;;;;;;5.68;71.34;98997.06;4974782;28;20068;-76
2023/05/18 02:11:25;;;;;;;7.90;5.43;;;;;;;5.56;71.43;98994.94;4971746;28;20464;-76
2023/05/18 02:13:50;;;;;;;8.38;5.25;;;;;;;5.71;71.54;98992.19;4970241;28;20475;-75
2023/05/18 02:16:16;;;;;;;9.63;5.22;;;;;;;5.73;70.53;98983.97;4964170;28;20038;-75
2023/05/18 02:18:42;;;;;;;8.35;4.97;;;;;;;5.88;70.42;98990.09;4995280;28;20064;-76
2023/05/18 02:21:08;;;;;;;13.25;5.18;;;;;;;5.93;70.93;98990.28;4974665;28;20058;-75
2023/05/18 02:23:34;;;;;;;9.40;4.05;;;;;;;6.06;69.49;98985.06;4974416;28;20117;-75
2023/05/18 02:26:00;;;;;;;11.20;5.03;;;;;;;5.84;70.55;98986.09;4991138;28;20060;-75
2023/05/18 02:28:25;;;;;;;9.48;4.55;;;;;;;5.96;70.39;98984.56;4974773;28;20507;-75
2023/05/18 02:30:51;;;;;;;11.27;4.90;;;;;;;6.06;69.67;98979.72;4991055;28;20045;-75
2023/05/18 02:33:25;;;;;;;8.55;4.10;;;;;;;6.09;69.08;98979.31;4974608;28;20400;-74
2023/05/18 02:35:51;;;;;;;7.97;3.95;;;;;;;6.14;69.00;98982.22;4950477;28;20519;-75
2023/05/18 02:38:16;;;;;;;8.23;3.97;;;;;;;6.19;68.76;98979.78;4958227;28;20069;-75
2023/05/18 02:40:42;;;;;;;11.98;4.22;;;;;;;6.14;69.43;98976.88;4990945;28;20054;-75
2023/05/18 02:43:07;;;;;;;8.88;4.20;;;;;;;6.34;69.27;98976.97;4991710;28;20443;-75
2023/05/18 02:45:32;;;;;;;8.65;4.18;;;;;;;6.27;68.93;98982.31;4991391;28;20034;-75
2023/05/18 02:47:58;;;;;;;10.45;4.45;;;;;;;6.38;68.20;98981.75;4974651;28;20029;-76
2023/05/18 02:50:24;;;;;;;10.20;4.05;;;;;;;6.22;69.42;98979.38;4974491;28;20061;-75
2023/05/18 02:52:50;;;;;;;10.55;4.40;;;;;;;6.09;69.60;98968.63;4970810;28;20034;-75
2023/05/18 02:55:16;;;;;;;8.80;4.15;;;;;;;6.29;68.96;98980.25;4974462;28;20121;-76
2023/05/18 02:58:12;;;;;;;8.75;4.13;;;;;;;6.11;69.17;98977.28;4980730;28;20049;-76
2023/05/18 03:00:58;;;;;;;11.90;4.35;;;;;;;6.20;69.61;98979.59;4963075;28;20034;-76
2023/05/18 03:03:24;;;;;;;11.25;4.22;;;;;;;6.22;69.63;98979.38;4975446;28;20038;-76
2023/05/18 03:05:51;;;;;;;10.02;4.13;;;;;;;6.19;68.80;98979.78;4977697;28;20117;-77
2023/05/18 03:08:19;;;;;;;7.88;3.75;;;;;;;6.05;70.02;98980.72;4958794;28;20034;-77
2023/05/18 03:10:44;;;;;;;8.55;4.45;;;;;;;6.17;69.64;98981.81;4958496;28;20085;-76
2023/05/18 03:13:10;;;;;;;9.07;4.45;;;;;;;6.19;69.58;98985.13;4974429;28;20031;-75
2023/05/18 03:15:36;;;;;;;10.07;3.95;;;;;;;6.10;69.22;98975.63;4974703;28;20030;-77
2023/05/18 03:18:02;;;;;;;7.68;4.28;;;;;;;6.10;69.93;98981.78;4982217;28;20038;-76
2023/05/18 03:20:30;;;;;;;11.82;4.65;;;;;;;6.00;70.19;98983.16;4942512;28;20102;-77
2023/05/18 03:22:56;;;;;;;8.40;4.55;;;;;;;6.05;69.67;98986.06;4975048;28;20038;-76
2023/05/18 03:30:46;;;;;;;12.27;5.22;;;;;;;5.88;70.25;98976.72;5056378;28;20045;-77
2023/05/18 03:33:12;;;;;;;8.88;4.65;;;;;;;6.05;70.00;98983.38;5019674;28;20029;-77
2023/05/18 03:35:39;;;;;;;11.85;4.45;;;;;;;5.97;69.77;98980.88;5054725;28;20025;-76
2023/05/18 03:38:06;;;;;;;12.77;4.68;;;;;;;6.11;69.82;98990.66;5055333;28;20032;-77
2023/05/18 03:40:32;;;;;;;12.23;4.85;;;;;;;5.94;70.15;98989.28;5024253;28;20021;-77
2023/05/18 03:42:57;;;;;;;8.98;4.72;;;;;;;5.83;70.45;98989.81;5020199;28;20043;-77
2023/05/18 03:45:23;;;;;;;9.15;4.32;;;;;;;6.03;69.73;98996.13;5020132;28;20021;-76
2023/05/18 03:47:48;;;;;;;13.13;4.88;;;;;;;6.00;70.12;98996.53;5054151;28;20102;-78
2023/05/18 03:50:14;;;;;;;11.50;5.10;;;;;;;6.06;69.97;98988.56;5021556;28;20024;-77
2023/05/18 03:52:43;;;;;;;9.23;4.65;;;;;;;5.92;70.57;98983.31;5021066;28;20025;-76
2023/05/18 03:55:09;;;;;;;6.18;4.13;;;;;;;5.98;70.48;98977.19;5038325;28;20505;-76
2023/05/18 03:57:34;;;;;;;12.27;4.43;;;;;;;6.21;69.87;98988.41;5036833;28;20040;-75
2023/05/18 04:00:03;;;;;;;11.38;5.70;;;;;;;6.15;70.26;98989.22;5022372;28;20028;-75
2023/05/18 04:02:31;;;;;;;11.48;4.63;;;;;;;6.08;69.76;98983.00;5021132;28;20040;-75
2023/05/18 04:04:56;;;;;;;9.55;4.10;;;;;;;6.24;69.51;98980.00;5019333;28;20390;-75
2023/05/18 04:07:23;;;;;;;10.90;4.38;;;;;;;6.32;69.81;98987.06;5035983;28;20037;-75
2023/05/18 04:09:50;;;;;;;9.38;4.35;;;;;;;6.22;69.85;98984.75;5023982;28;20072;-76
2023/05/18 04:12:15;;;;;;;10.00;4.32;;;;;;;6.15;70.26;98989.22;5016523;28;20052;-76
2023/05/18 04:14:41;;;;;;;12.85;5.30;;;;;;;6.12;70.33;98984.25;5015886;28;20049;-76
2023/05/18 04:17:06;;;;;;;9.13;4.75;;;;;;;6.23;70.42;98983.72;5032813;28;20068;-76
2023/05/18 04:19:36;;;;;;;10.25;5.15;;;;;;;6.21;70.98;98991.94;5016100;28;20394;-75
2023/05/18 04:22:04;;;;;;;14.38;4.97;;;;;;;6.45;69.62;98987.94;5015730;28;20045;-75
2023/05/18 04:24:33;;;;;;;10.63;4.85;;;;;;;6.44;70.17;98993.50;5016044;28;20095;-77
2023/05/18 04:27:01;;;;;;;10.60;5.00;;;;;;;6.44;70.10;98990.81;5000517;28;20029;-76
2023/05/18 04:29:28;;;;;;;7.32;4.82;;;;;;;6.42;71.24;98996.34;5016204;28;20077;-76
2023/05/18 04:31:58;;;;;;;11.13;6.35;;;;;;;6.47;70.81;98999.28;5033310;28;20371;-77
2023/05/18 04:34:25;;;;;;;15.02;5.78;;;;;;;6.56;70.86;99003.44;5025737;28;20041;-76
2023/05/18 04:36:53;;;;;;;10.05;5.43;;;;;;;6.59;69.98;99002.22;4999354;28;20067;-77
2023/05/18 04:39:19;;;;;;;12.77;5.60;;;;;;;6.62;70.50;99008.00;5026809;28;20516;-75
2023/05/18 04:41:45;;;;;;;10.00;4.60;;;;;;;6.77;69.99;99000.63;5051734;28;20029;-75
2023/05/18 04:44:12;;;;;;;8.60;4.60;;;;;;;6.84;69.60;99006.00;5008247;28;20064;-74
2023/05/18 04:46:39;;;;;;;9.35;4.18;;;;;;;7.09;67.98;99007.13;5032502;28;20419;-77
2023/05/18 04:49:06;;;;;;;8.90;4.78;;;;;;;7.07;68.19;99011.03;5032823;28;20067;-76
2023/05/18 04:51:33;;;;;;;9.95;4.82;;;;;;;7.07;68.96;99005.69;5015750;28;20067;-77
2023/05/18 04:53:59;;;;;;;10.30;4.57;;;;;;;7.24;68.16;99018.50;5015746;28;20033;-77
2023/05/18 04:56:25;;;;;;;11.25;4.57;;;;;;;7.42;67.19;99015.25;5015140;28;20116;-76
2023/05/18 04:58:50;;;;;;;10.65;4.82;;;;;;;7.38;67.96;99019.34;5031996;28;20117;-76
2023/05/18 05:01:16;;;;;;;9.00;4.40;;;;;;;7.51;67.28;99024.72;5032016;28;20529;-76
2023/05/18 05:03:42;;;;;;;11.07;4.80;;;;;;;7.58;67.33;99022.88;4998947;28;20025;-76
2023/05/18 05:06:08;;;;;;;9.82;4.47;;;;;;;7.64;66.91;99030.09;5015946;28;20026;-78
2023/05/18 05:08:35;;;;;;;9.95;4.68;;;;;;;7.65;67.62;99029.06;5015600;28;20065;-77
2023/05/18 05:11:00;;;;;;;10.32;4.65;;;;;;;7.60;67.64;99018.13;5020944;28;20039;-77
2023/05/18 05:13:26;;;;;;;10.88;4.47;;;;;;;7.90;66.70;99029.28;5035723;28;20038;-76
2023/05/18 05:15:52;;;;;;;10.88;4.55;;;;;;;7.86;66.08;99026.19;5000252;28;20444;-76
2023/05/18 05:18:17;;;;;;;13.27;5.22;;;;;;;8.05;65.50;99028.03;5015566;28;20041;-76
2023/05/18 05:20:43;;;;;;;9.13;3.70;;;;;;;7.94;66.49;99033.19;5015152;28;20109;-76
2023/05/18 05:23:08;;;;;;;8.38;4.00;;;;;;;7.88;65.61;99021.44;5031339;28;20065;-77
2023/05/18 05:25:37;;;;;;;11.30;4.22;;;;;;;8.06;65.66;99034.22;5005052;28;20111;-77
2023/05/18 05:28:02;;;;;;;8.00;3.63;;;;;;;8.16;65.33;99024.72;5051263;28;20059;-77
2023/05/18 05:30:28;;;;;;;12.63;4.25;;;;;;;8.34;65.88;99032.97;5029121;28;20068;-77
2023/05/18 05:32:53;;;;;;;10.85;4.07;;;;;;;8.47;64.82;99032.09;5034562;28;20026;-77
2023/05/18 05:35:19;;;;;;;9.38;3.63;;;;;;;8.60;64.52;99042.00;5045430;28;20025;-77
2023/05/18 05:37:45;;;;;;;13.40;4.43;;;;;;;8.70;64.68;99047.75;5018445;28;20037;-77
2023/05/18 05:40:11;;;;;;;12.20;4.47;;;;;;;8.59;64.65;99056.47;5050774;28;20036;-76
2023/05/18 05:42:41;;;;;;;8.15;3.60;;;;;;;8.68;63.78;99052.53;5021228;28;20033;-77
2023/05/18 05:45:07;;;;;;;11.50;4.32;;;;;;;8.45;63.83;99054.84;5033591;28;20103;-77
2023/05/18 05:47:40;;;;;;;11.35;4.30;;;;;;;8.78;64.80;99060.94;5034809;28;20044;-76
2023/05/18 05:50:06;;;;;;;13.27;4.28;;;;;;;8.74;64.28;99054.34;4998300;28;20073;-76
2023/05/18 05:52:32;;;;;;;11.70;3.65;;;;;;;8.74;63.21;99048.97;4995549;28;20026;-76
2023/05/18 05:54:58;;;;;;;9.68;3.55;;;;;;;9.04;62.79;99050.09;5013797;28;20033;-73
2023/05/18 05:57:24;;;;;;;7.22;3.80;;;;;;;8.81;63.15;99049.78;5031531;28;20025;-75
2023/05/18 05:59:50;;;;;;;10.85;4.00;;;;;;;9.12;62.93;99039.13;5043172;28;20033;-76
2023/05/18 06:02:15;;;;;;;8.95;3.72;;;;;;;9.08;62.42;99051.31;5014068;28;20044;-76
2023/05/18 06:04:42;;;;;;;11.70;4.30;;;;;;;9.04;62.54;99050.94;5030360;28;20037;-77
2023/05/18 06:07:08;;;;;;;9.63;4.30;;;;;;;9.29;62.11;99042.94;4997864;28;20025;-76
2023/05/18 06:09:33;;;;;;;10.48;4.13;;;;;;;9.26;61.69;99042.56;5011152;28;20087;-76
2023/05/18 06:11:58;;;;;;;10.85;3.80;;;;;;;9.24;61.75;99050.00;5024697;28;20040;-75
2023/05/18 06:14:26;;;;;;;10.07;4.18;;;;;;;9.46;61.87;99049.47;5014733;28;20111;-76
2023/05/18 06:16:52;;;;;;;8.90;3.90;;;;;;;9.83;62.25;99049.63;4998366;28;20021;-77
2023/05/18 06:19:18;;;;;;;11.70;3.45;;;;;;;9.89;60.81;99044.22;5050297;28;20079;-77
2023/05/18 06:21:44;;;;;;;8.95;3.65;;;;;;;9.81;60.82;99047.16;5036836;28;20116;-77
2023/05/18 06:24:10;;;;;;;11.05;4.22;;;;;;;9.45;60.58;99042.44;5013474;28;20029;-77
2023/05/18 06:27:03;;;;;;;10.82;4.20;;;;;;;9.80;60.78;99039.31;5034753;28;20040;-77
2023/05/18 06:29:45;;;;;;;7.80;3.72;;;;;;;9.91;60.63;99041.28;5023125;28;20041;-77
2023/05/18 06:32:24;;;;;;;9.02;3.45;;;;;;;10.10;59.49;99045.69;5003565;28;20037;-77
2023/05/18 06:34:53;;;;;;;8.20;3.53;;;;;;;10.23;60.92;99037.50;5012502;28;20037;-77
2023/05/18 06:37:20;;;;;;;12.23;3.50;;;;;;;10.16;59.50;99034.88;5029302;28;20029;-77
2023/05/18 06:39:45;;;;;;;11.90;3.58;;;;;;;10.56;59.71;99046.09;5012917;28;20534;-77
2023/05/18 06:42:11;;;;;;;13.98;5.30;;;;;;;10.74;58.76;99051.47;5029330;28;20032;-77
2023/05/18 06:44:49;;;;;;;12.77;4.53;;;;;;;10.80;58.68;99053.28;5014004;28;20069;-77
2023/05/18 06:47:17;;;;;;;9.43;3.90;;;;;;;10.88;59.53;99042.19;5024586;28;20395;-77
2023/05/18 06:49:42;;;;;;;6.93;3.55;;;;;;;10.98;58.96;99050.59;5017631;28;20029;-77
2023/05/18 06:52:08;;;;;;;10.27;3.88;;;;;;;10.81;57.30;99038.75;5030343;28;20029;-77
2023/05/18 06:54:35;;;;;;;10.40;3.50;;;;;;;10.85;56.86;99048.03;5013569;28;20156;-77
2023/05/18 06:57:00;;;;;;;9.77;4.20;;;;;;;10.91;58.40;99055.22;4997513;28;20072;-77
2023/05/18 06:59:26;;;;;;;12.10;3.80;;;;;;;11.07;56.95;99043.84;5013755;28;20040;-77
2023/05/18 07:01:51;;;;;;;11.80;3.40;;;;;;;11.09;57.31;99044.44;5011327;28;20517;-78
2023/05/18 07:04:20;;;;;;;11.27;3.40;;;;;;;11.41;56.93;99045.03;5017121;28;20029;-77
2023/05/18 07:06:45;;;;;;;13.00;3.60;;;;;;;11.33;56.53;99041.84;5039891;28;20116;-77
2023/05/18 07:09:11;;;;;;;11.50;3.75;;;;;;;11.43;56.09;99042.13;5010614;28;20432;-77
2023/05/18 07:11:39;;;;;;;9.43;3.28;;;;;;;11.75;54.43;99040.84;5028678;28;20036;-78
2023/05/18 07:14:04;;;;;;;9.02;3.63;;;;;;;11.76;55.25;99042.50;5033870;28;20021;-77
2023/05/18 07:16:30;;;;;;;8.98;3.78;;;;;;;11.77;55.11;99044.13;5028392;28;20550;-77
2023/05/18 07:18:57;;;;;;;11.30;3.35;;;;;;;11.70;55.55;99049.63;5024398;28;20024;-77
2023/05/18 07:21:23;;;;;;;13.88;3.63;;;;;;;11.97;54.23;99051.91;5044072;28;20068;-77
2023/05/18 07:23:49;;;;;;;10.55;3.65;;;;;;;12.13;54.36;99048.53;5048348;28;20645;-78
2023/05/18 07:26:14;;;;;;;9.88;3.13;;;;;;;12.01;54.09;99056.63;5046490;28;20036;-77
2023/05/18 07:28:40;;;;;;;15.30;3.97;;;;;;;12.20;52.90;99055.47;5024441;28;20395;-77
2023/05/18 07:31:05;;;;;;;9.43;3.50;;;;;;;12.20;52.22;99052.78;5044351;28;20399;-78
2023/05/18 07:33:31;;;;;;;9.57;3.90;;;;;;;12.21;53.75;99051.69;5047437;28;20057;-78
2023/05/18 07:35:57;;;;;;;9.38;3.33;;;;;;;12.24;54.89;99045.84;5027977;28;20041;-77
2023/05/18 07:38:22;;;;;;;11.90;3.80;;;;;;;12.42;54.67;99056.53;5040525;28;20025;-77
2023/05/18 07:40:47;;;;;;;11.77;3.88;;;;;;;12.64;52.70;99050.53;5045025;28;20124;-78
2023/05/18 07:43:13;;;;;;;9.45;3.22;;;;;;;12.77;52.87;99056.50;5047590;28;20025;-77
2023/05/18 07:45:38;;;;;;;7.97;3.35;;;;;;;12.87;52.66;99055.91;5044063;28;20112;-77
2023/05/18 07:48:03;;;;;;;8.95;3.60;;;;;;;12.60;53.01;99057.47;5023383;28;20497;-77
2023/05/18 07:50:29;;;;;;;9.93;3.35;;;;;;;12.62;52.56;99052.66;5028504;28;20033;-78
2023/05/18 07:52:55;;;;;;;13.13;3.78;;;;;;;12.71;52.10;99037.72;5030646;28;20025;-77
2023/05/18 07:55:20;;;;;;;8.80;3.45;;;;;;;13.03;53.04;99044.34;5042858;28;20052;-77
2023/05/18 07:57:45;;;;;;;12.25;3.70;;;;;;;13.13;53.15;99036.47;5023614;28;20064;-77
2023/05/18 08:00:11;;;;;;;11.48;3.20;;;;;;;13.19;51.80;99054.44;5045677;28;20116;-78
2023/05/18 08:02:39;;;;;;;7.68;3.08;;;;;;;13.18;50.56;99047.41;5050042;28;20025;-77
2023/05/18 08:05:05;;;;;;;11.05;3.28;;;;;;;13.18;50.81;99051.97;5044112;28;20068;-77
2023/05/18 08:07:31;;;;;;;12.43;3.47;;;;;;;13.08;51.03;99052.59;5033772;28;20030;-78
2023/05/18 08:09:57;;;;;;;9.57;3.47;;;;;;;13.61;49.98;99039.56;5017181;28;20037;-77
2023/05/18 08:12:23;;;;;;;8.60;3.25;;;;;;;13.63;49.33;99040.13;5030481;28;20024;-77
2023/05/18 08:14:49;;;;;;;10.13;3.50;;;;;;;13.58;49.60;99047.34;5043057;28;20482;-77
2023/05/18 08:17:14;;;;;;;9.38;3.08;;;;;;;13.29;51.31;99054.66;5020152;28;20036;-77
2023/05/18 08:19:40;;;;;;;14.00;3.45;;;;;;;13.54;50.85;99052.41;5033418;28;20044;-76
2023/05/18 08:22:05;;;;;;;9.18;2.65;;;;;;;13.23;51.14;99058.31;5050933;28;20033;-76
2023/05/18 08:24:32;;;;;;;11.25;3.55;;;;;;;13.75;48.39;99046.31;5034221;28;20045;-77
2023/05/18 08:26:57;;;;;;;10.40;3.83;;;;;;;13.70;47.19;99040.81;5036704;28;20030;-77
2023/05/18 08:29:22;;;;;;;9.43;3.25;;;;;;;14.23;47.57;99039.53;5033095;28;20384;-77
2023/05/18 08:31:48;;;;;;;8.20;3.30;;;;;;;13.66;46.92;99034.25;5035375;28;20092;-77
2023/05/18 08:34:13;;;;;;;12.75;3.15;;;;;;;13.94;46.53;99046.06;5044905;28;20069;-76
2023/05/18 08:36:39;;;;;;;9.50;3.20;;;;;;;14.26;46.98;99034.44;5029964;28;20026;-77
2023/05/18 08:39:05;;;;;;;12.20;3.42;;;;;;;14.27;46.54;99030.66;5026572;28;20041;-78
2023/05/18 08:41:49;;;;;;;10.00;3.00;;;;;;;14.69;46.26;99038.34;5039756;28;20092;-77
2023/05/18 08:44:19;;;;;;;6.95;2.63;;;;;;;14.63;45.80;99029.34;5025505;28;20037;-78
2023/05/18 08:46:49;;;;;;;9.90;3.15;;;;;;;13.79;47.58;99038.53;5039215;28;20395;-76
2023/05/18 08:49:17;;;;;;;9.05;3.10;;;;;;;13.87;46.91;99040.81;5039524;28;20109;-76
2023/05/18 08:51:45;;;;;;;8.75;2.83;;;;;;;14.08;47.27;99036.56;5045641;28;20542;-77
2023/05/18 08:54:14;;;;;;;7.05;3.00;;;;;;;14.63;45.32;99026.63;5046832;28;20021;-77
2023/05/18 08:56:40;;;;;;;8.90;3.40;;;;;;;14.28;45.05;99020.66;5039899;28;20041;-76
2023/05/18 08:59:07;;;;;;;8.40;3.08;;;;;;;14.57;44.49;99019.47;5022046;28;20032;-77
2023/05/18 09:01:32;;;;;;;8.40;2.85;;;;;;;14.59;45.75;99027.34;5028008;28;20041;-77
2023/05/18 09:03:59;;;;;;;9.18;3.10;;;;;;;14.09;45.06;99032.81;5012372;28;20066;-77
2023/05/18 09:06:25;;;;;;;9.90;2.97;;;;;;;14.35;46.89;99016.72;5023414;28;20037;-77
2023/05/18 09:08:51;;;;;;;7.32;2.80;;;;;;;14.02;47.20;99013.19;5021564;28;20032;-76
2023/05/18 09:11:17;;;;;;;9.68;3.42;;;;;;;14.26;45.43;99025.50;5031725;28;20081;-77
2023/05/18 09:13:43;;;;;;;11.73;3.10;;;;;;;14.80;46.60;99018.41;5011900;28;20071;-77
2023/05/18 09:16:08;;;;;;;10.07;3.00;;;;;;;15.10;44.17;99014.19;5038947;28;20051;-76
2023/05/18 09:18:33;;;;;;;6.97;2.58;;;;;;;14.62;44.97;99007.88;5037661;28;20380;-77
2023/05/18 09:20:59;;;;;;;9.52;2.70;;;;;;;14.64;44.23;99011.97;5032787;28;20108;-77
2023/05/18 09:23:24;;;;;;;12.50;3.38;;;;;;;14.53;43.80;99007.50;5015704;28;20037;-76
2023/05/18 09:25:51;;;;;;;8.90;3.28;;;;;;;14.51;43.88;99009.63;5024263;28;20120;-77
2023/05/18 09:28:31;;;;;;;11.00;3.30;;;;;;;14.94;45.93;99006.94;5034538;28;20029;-76
2023/05/18 09:30:56;;;;;;;9.27;2.42;;;;;;;14.55;41.50;99013.47;5027888;28;21531;-77
2023/05/18 09:33:22;;;;;;;7.75;3.00;;;;;;;14.61;44.43;99003.53;5044035;28;20100;-77
2023/05/18 09:35:49;;;;;;;9.25;2.90;;;;;;;14.56;44.60;99009.72;5050367;28;20056;-77
2023/05/18 09:38:20;;;;;;;7.20;3.05;;;;;;;14.85;44.34;99005.75;5021124;28;20068;-77
2023/05/18 09:40:47;;;;;;;9.98;3.03;;;;;;;14.78;43.51;99007.84;5041535;28;20038;-76
2023/05/18 09:43:13;;;;;;;6.85;2.70;;;;;;;14.46;44.50;99002.25;5045323;28;20017;-77
2023/05/18 09:45:43;;;;;;;10.38;2.97;;;;;;;14.96;43.69;99010.22;5040718;28;20079;-76
2023/05/18 09:48:08;;;;;;;9.30;2.80;;;;;;;14.60;42.76;99012.72;5037719;28;20094;-76
2023/05/18 09:50:36;;;;;;;10.90;2.70;;;;;;;14.75;43.46;99016.47;5009829;28;20030;-76
2023/05/18 09:53:03;;;;;;;9.35;3.55;;;;;;;14.94;42.88;99008.84;5009536;28;20036;-76
2023/05/18 09:55:28;;;;;;;9.20;2.90;;;;;;;14.30;42.48;99007.69;5024127;28;20474;-77
2023/05/18 09:57:55;;;;;;;8.48;2.88;;;;;;;14.02;43.13;99002.34;5039742;28;20140;-77
2023/05/18 10:00:20;;;;;;;12.20;3.10;;;;;;;14.14;43.34;98997.69;5047927;28;20029;-76
2023/05/18 10:02:47;;;;;;;6.28;2.75;;;;;;;14.23;43.69;99004.31;5050882;28;20098;-77
2023/05/18 10:05:20;;;;;;;7.85;2.65;;;;;;;14.57;42.48;99005.91;5031882;28;20025;-77
2023/05/18 10:07:46;;;;;;;8.02;2.72;;;;;;;15.44;41.95;98986.88;5043178;28;20033;-77
2023/05/18 10:10:11;;;;;;;4.50;2.88;;;;;;;15.09;40.25;98988.16;5023074;28;20025;-77
2023/05/18 10:12:40;;;;;;;9.05;3.15;;;;;;;15.52;41.58;98983.75;5032787;28;20044;-77
2023/05/18 10:15:09;;;;;;;10.75;2.97;;;;;;;15.93;40.92;98995.78;5013104;28;20039;-77
2023/05/18 10:17:36;;;;;;;7.47;2.83;;;;;;;15.58;41.11;98982.72;5040587;28;20127;-78
2023/05/18 10:20:04;;;;;;;7.72;2.50;;;;;;;16.40;41.91;98989.38;5040776;28;20036;-77
2023/05/18 10:22:33;;;;;;;8.77;2.97;;;;;;;15.70;39.73;98980.66;5047532;28;20040;-77
2023/05/18 10:25:00;;;;;;;7.22;2.97;;;;;;;15.63;39.88;98986.31;5059709;28;20048;-77
2023/05/18 10:27:27;;;;;;;12.18;3.22;;;;;;;16.80;37.08;98982.53;5047244;28;20038;-77
2023/05/18 10:29:54;;;;;;;7.20;2.72;;;;;;;16.38;39.42;98991.50;5045864;28;20024;-77
2023/05/18 10:32:19;;;;;;;7.53;2.40;;;;;;;15.90;41.80;98986.25;5021956;28;20033;-77
2023/05/18 10:34:45;;;;;;;11.35;3.20;;;;;;;16.71;39.76;98989.56;5030738;28;20391;-76
2023/05/18 10:37:12;;;;;;;9.43;3.00;;;;;;;15.54;42.56;98981.59;5024730;28;20553;-76
2023/05/18 10:39:38;;;;;;;9.50;3.25;;;;;;;15.86;43.66;98985.16;5041769;28;20052;-76
2023/05/18 10:42:07;;;;;;;8.30;3.00;;;;;;;15.56;40.94;98984.88;5039060;28;20376;-76
2023/05/18 10:44:34;;;;;;;7.80;2.65;;;;;;;16.15;40.80;98983.72;5023639;28;20518;-76
2023/05/18 10:46:59;;;;;;;11.48;3.00;;;;;;;16.28;39.35;98977.84;5041822;28;20079;-76
2023/05/18 10:49:26;;;;;;;8.95;3.08;;;;;;;16.80;38.00;98975.19;5023626;28;20426;-76
2023/05/18 10:51:54;;;;;;;9.18;3.25;;;;;;;16.42;40.92;98968.16;5001521;28;20849;-76
2023/05/18 10:54:22;;;;;;;7.35;3.15;;;;;;;17.40;42.37;98969.13;5030857;28;20087;-76
2023/05/18 10:56:50;;;;;;;6.78;2.58;;;;;;;15.67;40.02;98981.16;5025927;28;20041;-76
2023/05/18 10:59:17;;;;;;;10.20;3.08;;;;;;;16.46;38.99;98969.25;5040839;28;20104;-76
2023/05/18 11:01:43;;;;;;;8.15;3.03;;;;;;;17.02;40.38;98966.81;5045186;28;20491;-76
2023/05/18 11:04:08;;;;;;;8.90;3.22;;;;;;;16.31;43.36;98971.09;5030476;28;20032;-76
2023/05/18 11:06:34;;;;;;;10.35;3.90;;;;;;;16.05;41.86;98975.53;5026009;28;20051;-76
2023/05/18 11:09:00;;;;;;;8.90;3.30;;;;;;;15.54;42.00;98976.16;5005610;28;20116;-76
2023/05/18 11:11:28;;;;;;;10.52;3.30;;;;;;;15.31;41.74;98965.59;5026237;28;20040;-76
2023/05/18 11:13:59;;;;;;;6.72;3.28;;;;;;;15.98;43.45;98961.34;5029342;28;20025;-76
2023/05/18 11:16:34;;;;;;;7.60;3.13;;;;;;;16.62;39.91;98955.78;5013775;28;20044;-76
2023/05/18 11:19:06;;;;;;;9.43;3.05;;;;;;;17.04;39.67;98953.75;5032083;28;20037;-76
2023/05/18 11:21:34;;;;;;;6.03;2.92;;;;;;;16.70;39.16;98958.00;5033696;28;20091;-77
2023/05/18 11:24:21;;;;;;;8.70;3.33;;;;;;;17.23;41.29;98957.63;5047904;28;20108;-77
2023/05/18 11:26:52;;;;;;;10.75;3.55;;;;;;;16.40;41.09;98947.75;5020711;28;20056;-77
2023/05/18 11:29:19;;;;;;;7.22;3.33;;;;;;;15.87;41.73;98946.84;5042527;28;20031;-77
2023/05/18 11:31:52;;;;;;;9.02;3.30;;;;;;;16.77;40.85;98942.25;5041181;28;20057;-76
2023/05/18 11:34:46;;;;;;;8.93;3.28;;;;;;;16.51;39.83;98933.97;5011696;28;20040;-76
2023/05/18 11:37:17;;;;;;;6.68;3.05;;;;;;;17.42;38.81;98934.25;5011540;28;20043;-76
2023/05/18 11:40:09;;;;;;;7.68;3.25;;;;;;;17.27;38.66;98936.94;5039000;28;20432;-76